Weather History for Mammoth, CA

Change the Weather History Date:

Saturday, February 9, 2013

  Actual Average Record
Temperature  
Mean Temperature 24 °F -  
Max Temperature 35 °F 34 °F 59 °F (2012)
Min Temperature 14 °F 21 °F -18 °F (1998)
Degree Days  
Heating Degree Days 40    
Moisture  
Dew Point 8 °F    
Average Humidity 54    
Maximum Humidity 79    
Minimum Humidity 24    
Precipitation  
Precipitation 0.00 in - - ()
Sea Level Pressure  
Sea Level Pressure 29.89 in    
Wind  
Wind Speed 9 mph (WNW)    
Max Wind Speed 15 mph    
Max Gust Speed 21 mph    
Visibility 10 miles    
Events      
Averages and records for this station are not official NWS values.
T = Trace of Precipitation, MM = Missing Value Source: NWS Daily Summary

Daily Weather History Graph

Daily Weather History Graph

Search for Another Location

Airport:

Trip Planner

Search our weather history database for the weather conditions in past years. The results will help you decide how hot, cold, wet, or windy it might be!

Date:

Astronomy

Feb. 09, 2013 Rise Set
Actual Time 6:51 AM PST 5:28 PM PST
Civil Twilight 6:24 AM PST 5:55 PM PST
Nautical Twilight 5:53 AM PST 6:26 PM PST
Astronomical Twilight 5:22 AM PST 6:57 PM PST
Moon 6:06 AM PST (2/9) 5:16 PM PST (2/9)
Length of Visible Light 11h 31m
Length of Day
10h 37m
Waning Crescent, 0% of the Moon is Illuminated
Feb 9
Waning Crescent
Feb 9
New
Feb 17
First Quarter
Feb 25
Full
Mar 4
Last Quarter

Hourly Weather History & Observations

Time (PST) Temp. Windchill Dew Point Humidity Pressure Visibility Wind Dir Wind Speed Gust Speed Precip Events Conditions
12:15 AM 19.4 °F 10.4 °F 12.2 °F 74% 29.81 in 10.0 mi West 6.9 mph - N/A   Mostly Cloudy
12:35 AM 19.4 °F 7.9 °F 12.2 °F 74% 29.81 in 10.0 mi WNW 10.4 mph - N/A   Scattered Clouds
12:55 AM 19.4 °F 7.2 °F 12.2 °F 74% 29.81 in 10.0 mi WNW 11.5 mph 17.3 mph N/A   Scattered Clouds
1:15 AM 19.4 °F 7.2 °F 12.2 °F 74% 29.81 in 10.0 mi West 11.5 mph - N/A   Mostly Cloudy
1:35 AM 19.4 °F 7.2 °F 12.2 °F 74% 29.81 in 10.0 mi NW 11.5 mph - N/A   Mostly Cloudy
1:55 AM 19.4 °F 6.6 °F 12.2 °F 74% 29.81 in 10.0 mi West 12.7 mph - N/A   Mostly Cloudy
2:15 AM 17.6 °F 3.7 °F 12.2 °F 79% 29.81 in 10.0 mi West 13.8 mph - N/A   Overcast
2:35 AM 17.6 °F 4.3 °F 12.2 °F 79% 29.82 in 10.0 mi WNW 12.7 mph - N/A   Overcast
3:15 AM 19.4 °F 7.2 °F 10.4 °F 68% 29.81 in 10.0 mi West 11.5 mph 18.4 mph N/A   Overcast
3:35 AM 19.4 °F 6.6 °F 10.4 °F 68% 29.81 in 10.0 mi West 12.7 mph 16.1 mph N/A   Overcast
3:55 AM 19.4 °F 7.2 °F 12.2 °F 74% 29.82 in 10.0 mi WNW 11.5 mph - N/A   Overcast
4:15 AM 21.2 °F 8.9 °F 10.4 °F 63% 29.83 in 10.0 mi West 12.7 mph - N/A   Overcast
4:35 AM 21.2 °F 10.1 °F 10.4 °F 63% 29.82 in 10.0 mi West 10.4 mph 19.6 mph N/A   Overcast
4:55 AM 19.4 °F 7.2 °F 10.4 °F 68% 29.82 in 10.0 mi West 11.5 mph - N/A   Overcast
5:15 AM 19.4 °F 7.2 °F 10.4 °F 68% 29.83 in 10.0 mi West 11.5 mph - N/A   Mostly Cloudy
5:35 AM 21.2 °F 8.9 °F 10.4 °F 63% 29.84 in 10.0 mi WNW 12.7 mph 19.6 mph N/A   Overcast
5:55 AM 21.2 °F 9.5 °F 12.2 °F 68% 29.84 in 10.0 mi WNW 11.5 mph - N/A   Overcast
6:15 AM 21.2 °F 11.7 °F 12.2 °F 68% 29.84 in 10.0 mi West 8.1 mph - N/A   Overcast
6:35 AM 21.2 °F 12.6 °F 12.2 °F 68% 29.85 in 10.0 mi WNW 6.9 mph - N/A   Overcast
6:55 AM 21.2 °F 13.6 °F 12.2 °F 68% 29.85 in 10.0 mi NNW 5.8 mph - N/A   Overcast
7:35 AM 19.4 °F 12.8 °F 12.2 °F 74% 29.86 in 10.0 mi WNW 4.6 mph - N/A   Mostly Cloudy
7:55 AM 19.4 °F 11.5 °F 12.2 °F 74% 29.87 in 10.0 mi NW 5.8 mph - N/A   Scattered Clouds
8:15 AM 23.0 °F 14.7 °F 12.2 °F 63% 29.87 in 10.0 mi NW 6.9 mph - N/A   Clear
9:15 AM 28.4 °F 22.2 °F 10.4 °F 47% 29.88 in 10.0 mi WNW 5.8 mph - N/A   Clear
9:35 AM 28.4 °F 24.6 °F 6.8 °F 40% 29.88 in 10.0 mi WSW 3.5 mph - N/A   Clear
9:55 AM 30.2 °F 24.3 °F 8.6 °F 40% 29.88 in 10.0 mi WNW 5.8 mph 9.2 mph N/A   Clear
10:15 AM 32.0 °F 24.2 °F 10.4 °F 41% 29.89 in 10.0 mi NW 9.2 mph - N/A   Clear
10:35 AM 32.0 °F 25.6 °F 8.6 °F 38% 29.89 in 10.0 mi North 6.9 mph 16.1 mph N/A   Clear
10:55 AM 32.0 °F - 8.6 °F 38% 29.89 in 10.0 mi North - - N/A   Clear
11:15 AM 32.0 °F 27.5 °F 10.4 °F 41% 29.89 in 10.0 mi NW 4.6 mph - N/A   Clear
11:35 AM 32.0 °F 27.5 °F 8.6 °F 38% 29.90 in 10.0 mi NNW 4.6 mph - N/A   Clear
11:55 AM 33.8 °F 28.6 °F 3.2 °F 28% 29.89 in 10.0 mi NW 5.8 mph - N/A   Clear
12:15 PM 33.8 °F 28.6 °F 3.2 °F 28% 29.89 in 10.0 mi NNE 5.8 mph - N/A   Clear
12:35 PM 33.8 °F 28.6 °F 1.4 °F 25% 29.89 in 10.0 mi West 5.8 mph - N/A   Clear
1:15 PM 35.6 °F 27.5 °F 1.4 °F 24% 29.89 in 10.0 mi North 11.5 mph - N/A   Clear
1:35 PM 35.6 °F - 1.4 °F 24% 29.89 in 10.0 mi North - - N/A   Clear
1:55 PM 35.6 °F 29.2 °F 1.4 °F 24% 29.88 in 10.0 mi West 8.1 mph - N/A   Clear
2:15 PM 35.6 °F - 1.4 °F 24% 29.89 in 10.0 mi North - - N/A   Clear
2:35 PM 35.6 °F 26.6 °F 3.2 °F 26% 29.89 in 10.0 mi NNW 13.8 mph 18.4 mph N/A   Clear
3:15 PM 33.8 °F 23.9 °F 3.2 °F 28% 29.89 in 10.0 mi NNW 15.0 mph 20.7 mph N/A   Clear
3:35 PM 33.8 °F 25.3 °F 1.4 °F 25% 29.90 in 10.0 mi NNW 11.5 mph 16.1 mph N/A   Clear
3:55 PM 33.8 °F 26.4 °F 1.4 °F 25% 29.91 in 10.0 mi NNW 9.2 mph - N/A   Clear
4:15 PM 33.8 °F 26.4 °F 3.2 °F 28% 29.91 in 10.0 mi North 9.2 mph - N/A   Clear
4:35 PM 32.0 °F 24.2 °F 5.0 °F 32% 29.91 in 10.0 mi NNW 9.2 mph - N/A   Clear
5:15 PM 28.4 °F 22.2 °F 8.6 °F 43% 29.92 in 10.0 mi NNW 5.8 mph - N/A   Clear
5:35 PM 26.6 °F - 6.8 °F 43% 29.93 in 10.0 mi Calm Calm - N/A   Clear
5:55 PM 24.8 °F 17.9 °F 10.4 °F 54% 29.94 in 10.0 mi NW 5.8 mph - N/A   Clear
6:15 PM 24.8 °F 17.9 °F 8.6 °F 50% 29.94 in 10.0 mi West 5.8 mph - N/A   Clear
6:35 PM 23.0 °F 13.9 °F 10.4 °F 59% 29.95 in 10.0 mi West 8.1 mph - N/A   Clear
6:55 PM 21.2 °F 10.9 °F 10.4 °F 63% 29.95 in 10.0 mi WNW 9.2 mph - N/A   Clear
7:15 PM 21.2 °F 10.9 °F 10.4 °F 63% 29.97 in 10.0 mi West 9.2 mph - N/A   Clear
7:35 PM 23.0 °F 14.7 °F 8.6 °F 54% 29.96 in 10.0 mi West 6.9 mph - N/A   Clear
7:55 PM 19.4 °F - 8.6 °F 63% 29.95 in 10.0 mi Calm Calm - N/A   Clear
8:15 PM 19.4 °F 11.5 °F 8.6 °F 63% 29.95 in 10.0 mi West 5.8 mph - N/A   Clear
8:35 PM 19.4 °F - 8.6 °F 63% 29.96 in 10.0 mi Calm Calm - N/A   Clear
8:55 PM 17.6 °F 12.3 °F 8.6 °F 68% 29.97 in 10.0 mi NW 3.5 mph - N/A   Clear
9:35 PM 17.6 °F 8.2 °F 8.6 °F 68% 29.99 in 10.0 mi West 6.9 mph - N/A   Clear
9:55 PM 15.8 °F - 8.6 °F 73% 29.99 in 10.0 mi Calm Calm - N/A   Clear
10:15 PM 14.0 °F 5.1 °F 6.8 °F 73% 29.99 in 10.0 mi WNW 5.8 mph - N/A   Clear
10:35 PM 17.6 °F 7.3 °F 6.8 °F 63% 29.99 in 10.0 mi West 8.1 mph - N/A   Clear
10:55 PM 17.6 °F 9.3 °F 5.0 °F 58% 30.00 in 10.0 mi West 5.8 mph - N/A   Clear
11:15 PM 15.8 °F 6.1 °F 6.8 °F 68% 30.00 in 10.0 mi WNW 6.9 mph - N/A   Clear
11:35 PM 17.6 °F 8.2 °F 5.0 °F 58% 30.00 in 10.0 mi WNW 6.9 mph - N/A   Clear